sensor_id;sensor_type;location;lat;lon;timestamp;P1;durP1;ratioP1;P2;durP2;ratioP2
21733;SDS011;11029;47.820;10.534;2023-07-13T00:00:47;2.72;;;2.13;;
21733;SDS011;11029;47.820;10.534;2023-07-13T00:03:14;3.63;;;2.45;;
21733;SDS011;11029;47.820;10.534;2023-07-13T00:05:41;2.85;;;2.33;;
21733;SDS011;11029;47.820;10.534;2023-07-13T00:08:08;2.97;;;2.30;;
21733;SDS011;11029;47.820;10.534;2023-07-13T00:10:38;4.88;;;2.53;;
21733;SDS011;11029;47.820;10.534;2023-07-13T00:13:09;4.22;;;2.42;;
21733;SDS011;11029;47.820;10.534;2023-07-13T00:15:36;2.83;;;2.63;;
21733;SDS011;11029;47.820;10.534;2023-07-13T00:18:03;2.90;;;2.67;;
21733;SDS011;11029;47.820;10.534;2023-07-13T00:20:30;4.32;;;3.10;;
21733;SDS011;11029;47.820;10.534;2023-07-13T00:22:57;3.30;;;2.60;;
21733;SDS011;11029;47.820;10.534;2023-07-13T00:25:24;4.60;;;3.20;;
21733;SDS011;11029;47.820;10.534;2023-07-13T00:27:54;3.13;;;2.65;;
21733;SDS011;11029;47.820;10.534;2023-07-13T00:30:21;3.33;;;2.90;;
21733;SDS011;11029;47.820;10.534;2023-07-13T00:32:49;3.92;;;2.55;;
21733;SDS011;11029;47.820;10.534;2023-07-13T00:35:30;4.00;;;2.90;;
21733;SDS011;11029;47.820;10.534;2023-07-13T00:37:57;4.32;;;2.78;;
21733;SDS011;11029;47.820;10.534;2023-07-13T00:40:24;4.57;;;3.25;;
21733;SDS011;11029;47.820;10.534;2023-07-13T00:42:52;3.78;;;3.22;;
21733;SDS011;11029;47.820;10.534;2023-07-13T00:47:46;3.50;;;2.72;;
21733;SDS011;11029;47.820;10.534;2023-07-13T00:50:14;3.83;;;3.22;;
21733;SDS011;11029;47.820;10.534;2023-07-13T00:52:43;5.25;;;3.35;;
21733;SDS011;11029;47.820;10.534;2023-07-13T00:55:13;3.85;;;3.45;;
21733;SDS011;11029;47.820;10.534;2023-07-13T00:57:41;4.53;;;3.42;;
21733;SDS011;11029;47.820;10.534;2023-07-13T01:00:09;7.18;;;3.78;;
21733;SDS011;11029;47.820;10.534;2023-07-13T01:02:39;5.00;;;3.10;;
21733;SDS011;11029;47.820;10.534;2023-07-13T01:05:09;4.18;;;3.40;;
21733;SDS011;11029;47.820;10.534;2023-07-13T01:07:36;4.20;;;3.50;;
21733;SDS011;11029;47.820;10.534;2023-07-13T01:10:04;4.88;;;3.30;;
21733;SDS011;11029;47.820;10.534;2023-07-13T01:12:31;3.90;;;3.50;;
21733;SDS011;11029;47.820;10.534;2023-07-13T01:14:59;4.47;;;3.15;;
21733;SDS011;11029;47.820;10.534;2023-07-13T01:17:27;4.50;;;3.30;;
21733;SDS011;11029;47.820;10.534;2023-07-13T01:19:55;4.57;;;3.13;;
21733;SDS011;11029;47.820;10.534;2023-07-13T01:22:22;3.30;;;3.00;;
21733;SDS011;11029;47.820;10.534;2023-07-13T01:24:52;4.50;;;3.15;;
21733;SDS011;11029;47.820;10.534;2023-07-13T01:27:21;3.75;;;3.45;;
21733;SDS011;11029;47.820;10.534;2023-07-13T01:29:51;3.55;;;2.90;;
21733;SDS011;11029;47.820;10.534;2023-07-13T01:32:20;3.83;;;3.00;;
21733;SDS011;11029;47.820;10.534;2023-07-13T01:34:54;7.50;;;3.25;;
21733;SDS011;11029;47.820;10.534;2023-07-13T01:37:21;4.30;;;2.90;;
21733;SDS011;11029;47.820;10.534;2023-07-13T01:39:50;3.97;;;2.90;;
21733;SDS011;11029;47.820;10.534;2023-07-13T01:42:18;3.25;;;2.65;;
21733;SDS011;11029;47.820;10.534;2023-07-13T01:44:47;3.17;;;2.83;;
21733;SDS011;11029;47.820;10.534;2023-07-13T01:47:13;3.05;;;2.85;;
21733;SDS011;11029;47.820;10.534;2023-07-13T01:49:40;2.88;;;2.60;;
21733;SDS011;11029;47.820;10.534;2023-07-13T01:52:07;3.35;;;2.90;;
21733;SDS011;11029;47.820;10.534;2023-07-13T01:54:34;3.38;;;2.35;;
21733;SDS011;11029;47.820;10.534;2023-07-13T01:57:01;3.38;;;2.90;;
21733;SDS011;11029;47.820;10.534;2023-07-13T01:59:27;3.13;;;2.83;;
21733;SDS011;11029;47.820;10.534;2023-07-13T02:01:54;3.80;;;2.60;;
21733;SDS011;11029;47.820;10.534;2023-07-13T02:04:21;3.58;;;2.38;;
21733;SDS011;11029;47.820;10.534;2023-07-13T02:06:49;2.83;;;2.58;;
21733;SDS011;11029;47.820;10.534;2023-07-13T02:09:16;2.90;;;2.40;;
21733;SDS011;11029;47.820;10.534;2023-07-13T02:11:42;4.15;;;2.67;;
21733;SDS011;11029;47.820;10.534;2023-07-13T02:14:09;2.53;;;2.33;;
21733;SDS011;11029;47.820;10.534;2023-07-13T02:16:36;3.15;;;2.40;;
21733;SDS011;11029;47.820;10.534;2023-07-13T02:19:03;4.68;;;2.55;;
21733;SDS011;11029;47.820;10.534;2023-07-13T02:21:30;2.75;;;2.55;;
21733;SDS011;11029;47.820;10.534;2023-07-13T02:23:57;2.88;;;2.63;;
21733;SDS011;11029;47.820;10.534;2023-07-13T02:26:24;3.78;;;2.80;;
21733;SDS011;11029;47.820;10.534;2023-07-13T02:28:50;3.13;;;2.70;;
21733;SDS011;11029;47.820;10.534;2023-07-13T02:31:19;2.90;;;2.45;;
21733;SDS011;11029;47.820;10.534;2023-07-13T02:33:46;3.00;;;2.70;;
21733;SDS011;11029;47.820;10.534;2023-07-13T02:36:13;4.90;;;2.65;;
21733;SDS011;11029;47.820;10.534;2023-07-13T02:38:44;2.95;;;2.35;;
21733;SDS011;11029;47.820;10.534;2023-07-13T02:41:11;4.50;;;2.60;;
21733;SDS011;11029;47.820;10.534;2023-07-13T02:43:39;3.40;;;3.10;;
21733;SDS011;11029;47.820;10.534;2023-07-13T02:46:08;4.55;;;2.72;;
21733;SDS011;11029;47.820;10.534;2023-07-13T02:48:36;2.95;;;2.53;;
21733;SDS011;11029;47.820;10.534;2023-07-13T02:51:04;3.30;;;2.95;;
21733;SDS011;11029;47.820;10.534;2023-07-13T02:53:31;3.22;;;2.65;;
21733;SDS011;11029;47.820;10.534;2023-07-13T02:55:58;2.97;;;2.67;;
21733;SDS011;11029;47.820;10.534;2023-07-13T02:58:25;3.92;;;2.30;;
21733;SDS011;11029;47.820;10.534;2023-07-13T03:00:52;4.72;;;2.67;;
21733;SDS011;11029;47.820;10.534;2023-07-13T03:03:20;3.35;;;2.60;;
21733;SDS011;11029;47.820;10.534;2023-07-13T03:05:47;3.50;;;2.67;;
21733;SDS011;11029;47.820;10.534;2023-07-13T03:08:18;3.15;;;2.85;;
21733;SDS011;11029;47.820;10.534;2023-07-13T03:10:46;5.50;;;2.80;;
21733;SDS011;11029;47.820;10.534;2023-07-13T03:13:13;3.38;;;3.05;;
21733;SDS011;11029;47.820;10.534;2023-07-13T03:15:41;2.78;;;2.47;;
21733;SDS011;11029;47.820;10.534;2023-07-13T03:18:08;3.33;;;2.88;;
21733;SDS011;11029;47.820;10.534;2023-07-13T03:20:35;4.70;;;3.00;;
21733;SDS011;11029;47.820;10.534;2023-07-13T03:23:03;3.38;;;2.33;;
21733;SDS011;11029;47.820;10.534;2023-07-13T03:25:30;3.78;;;2.83;;
21733;SDS011;11029;47.820;10.534;2023-07-13T03:27:58;4.35;;;2.88;;
21733;SDS011;11029;47.820;10.534;2023-07-13T03:30:26;5.30;;;2.63;;
21733;SDS011;11029;47.820;10.534;2023-07-13T03:32:53;4.00;;;2.72;;
21733;SDS011;11029;47.820;10.534;2023-07-13T03:35:20;3.97;;;3.17;;
21733;SDS011;11029;47.820;10.534;2023-07-13T03:37:47;3.70;;;3.30;;
21733;SDS011;11029;47.820;10.534;2023-07-13T03:40:18;5.93;;;3.22;;
21733;SDS011;11029;47.820;10.534;2023-07-13T03:42:45;5.78;;;3.50;;
21733;SDS011;11029;47.820;10.534;2023-07-13T03:45:15;5.20;;;3.10;;
21733;SDS011;11029;47.820;10.534;2023-07-13T03:47:41;4.72;;;3.20;;
21733;SDS011;11029;47.820;10.534;2023-07-13T03:50:08;4.78;;;3.20;;
21733;SDS011;11029;47.820;10.534;2023-07-13T03:52:35;8.65;;;3.00;;
21733;SDS011;11029;47.820;10.534;2023-07-13T03:55:02;4.55;;;3.13;;
21733;SDS011;11029;47.820;10.534;2023-07-13T03:57:29;5.30;;;3.08;;
21733;SDS011;11029;47.820;10.534;2023-07-13T03:59:57;4.88;;;3.63;;
21733;SDS011;11029;47.820;10.534;2023-07-13T04:02:24;5.05;;;3.28;;
21733;SDS011;11029;47.820;10.534;2023-07-13T04:04:53;3.85;;;3.53;;
21733;SDS011;11029;47.820;10.534;2023-07-13T04:07:21;5.07;;;3.22;;
21733;SDS011;11029;47.820;10.534;2023-07-13T04:09:48;4.10;;;3.03;;
21733;SDS011;11029;47.820;10.534;2023-07-13T04:12:14;5.10;;;3.00;;
21733;SDS011;11029;47.820;10.534;2023-07-13T04:14:41;4.82;;;3.70;;
21733;SDS011;11029;47.820;10.534;2023-07-13T04:17:08;4.07;;;3.47;;
21733;SDS011;11029;47.820;10.534;2023-07-13T04:19:35;4.53;;;3.20;;
21733;SDS011;11029;47.820;10.534;2023-07-13T04:22:02;5.47;;;3.40;;
21733;SDS011;11029;47.820;10.534;2023-07-13T04:24:29;7.05;;;3.63;;
21733;SDS011;11029;47.820;10.534;2023-07-13T04:26:56;4.47;;;3.17;;
21733;SDS011;11029;47.820;10.534;2023-07-13T04:29:25;4.65;;;2.72;;
21733;SDS011;11029;47.820;10.534;2023-07-13T04:31:52;3.83;;;3.28;;
21733;SDS011;11029;47.820;10.534;2023-07-13T04:34:19;5.85;;;3.47;;
21733;SDS011;11029;47.820;10.534;2023-07-13T04:36:46;4.32;;;3.13;;
21733;SDS011;11029;47.820;10.534;2023-07-13T04:39:12;5.60;;;3.42;;
21733;SDS011;11029;47.820;10.534;2023-07-13T04:41:39;4.65;;;3.03;;
21733;SDS011;11029;47.820;10.534;2023-07-13T04:44:06;3.55;;;3.20;;
21733;SDS011;11029;47.820;10.534;2023-07-13T04:46:33;3.25;;;2.92;;
21733;SDS011;11029;47.820;10.534;2023-07-13T04:49:00;3.33;;;2.72;;
21733;SDS011;11029;47.820;10.534;2023-07-13T04:51:27;3.10;;;2.80;;
21733;SDS011;11029;47.820;10.534;2023-07-13T04:53:53;7.57;;;3.08;;
21733;SDS011;11029;47.820;10.534;2023-07-13T04:56:26;5.85;;;3.17;;
21733;SDS011;11029;47.820;10.534;2023-07-13T04:58:53;3.63;;;3.10;;
21733;SDS011;11029;47.820;10.534;2023-07-13T05:01:19;4.93;;;3.42;;
21733;SDS011;11029;47.820;10.534;2023-07-13T05:03:46;7.95;;;3.58;;
21733;SDS011;11029;47.820;10.534;2023-07-13T05:06:13;4.75;;;3.15;;
21733;SDS011;11029;47.820;10.534;2023-07-13T05:08:40;4.75;;;3.70;;
21733;SDS011;11029;47.820;10.534;2023-07-13T05:11:06;8.00;;;3.63;;
21733;SDS011;11029;47.820;10.534;2023-07-13T05:13:34;3.60;;;3.30;;
21733;SDS011;11029;47.820;10.534;2023-07-13T05:16:02;5.07;;;3.30;;
21733;SDS011;11029;47.820;10.534;2023-07-13T05:18:30;5.43;;;3.35;;
21733;SDS011;11029;47.820;10.534;2023-07-13T05:21:01;5.57;;;3.58;;
21733;SDS011;11029;47.820;10.534;2023-07-13T05:23:30;4.85;;;3.60;;
21733;SDS011;11029;47.820;10.534;2023-07-13T05:25:58;4.97;;;4.00;;
21733;SDS011;11029;47.820;10.534;2023-07-13T05:28:26;4.18;;;3.17;;
21733;SDS011;11029;47.820;10.534;2023-07-13T05:30:54;4.30;;;3.25;;
21733;SDS011;11029;47.820;10.534;2023-07-13T05:33:22;4.45;;;3.35;;
21733;SDS011;11029;47.820;10.534;2023-07-13T05:35:50;4.35;;;3.63;;
21733;SDS011;11029;47.820;10.534;2023-07-13T05:38:17;3.65;;;3.33;;
21733;SDS011;11029;47.820;10.534;2023-07-13T05:40:44;4.55;;;2.97;;
21733;SDS011;11029;47.820;10.534;2023-07-13T05:43:12;3.92;;;2.83;;
21733;SDS011;11029;47.820;10.534;2023-07-13T05:45:40;3.83;;;3.10;;
21733;SDS011;11029;47.820;10.534;2023-07-13T05:48:06;4.18;;;3.00;;
21733;SDS011;11029;47.820;10.534;2023-07-13T05:50:33;3.58;;;3.17;;
21733;SDS011;11029;47.820;10.534;2023-07-13T05:53:00;5.35;;;3.30;;
21733;SDS011;11029;47.820;10.534;2023-07-13T05:55:27;5.75;;;3.70;;
21733;SDS011;11029;47.820;10.534;2023-07-13T05:57:54;4.07;;;3.58;;
21733;SDS011;11029;47.820;10.534;2023-07-13T06:00:21;3.95;;;3.03;;
21733;SDS011;11029;47.820;10.534;2023-07-13T06:02:48;4.93;;;3.17;;
21733;SDS011;11029;47.820;10.534;2023-07-13T06:05:15;4.13;;;3.28;;
21733;SDS011;11029;47.820;10.534;2023-07-13T06:07:42;6.50;;;3.88;;
21733;SDS011;11029;47.820;10.534;2023-07-13T06:10:09;4.78;;;3.78;;
21733;SDS011;11029;47.820;10.534;2023-07-13T06:12:36;4.90;;;3.80;;
21733;SDS011;11029;47.820;10.534;2023-07-13T06:15:03;5.93;;;3.63;;
21733;SDS011;11029;47.820;10.534;2023-07-13T06:17:30;6.90;;;3.47;;
21733;SDS011;11029;47.820;10.534;2023-07-13T06:19:57;3.30;;;2.97;;
21733;SDS011;11029;47.820;10.534;2023-07-13T06:22:23;3.40;;;3.10;;
21733;SDS011;11029;47.820;10.534;2023-07-13T06:24:51;3.50;;;3.20;;
21733;SDS011;11029;47.820;10.534;2023-07-13T06:27:18;4.18;;;3.30;;
21733;SDS011;11029;47.820;10.534;2023-07-13T06:29:44;3.22;;;3.03;;
21733;SDS011;11029;47.820;10.534;2023-07-13T06:32:11;4.80;;;2.83;;
21733;SDS011;11029;47.820;10.534;2023-07-13T06:34:38;4.85;;;2.70;;
21733;SDS011;11029;47.820;10.534;2023-07-13T06:37:08;4.47;;;2.83;;
21733;SDS011;11029;47.820;10.534;2023-07-13T06:39:36;4.70;;;2.50;;
21733;SDS011;11029;47.820;10.534;2023-07-13T06:42:02;4.15;;;2.33;;
21733;SDS011;11029;47.820;10.534;2023-07-13T06:44:30;3.92;;;2.67;;
21733;SDS011;11029;47.820;10.534;2023-07-13T06:46:57;5.47;;;2.13;;
21733;SDS011;11029;47.820;10.534;2023-07-13T06:49:23;4.25;;;2.67;;
21733;SDS011;11029;47.820;10.534;2023-07-13T06:51:50;3.75;;;2.72;;
21733;SDS011;11029;47.820;10.534;2023-07-13T06:54:17;3.15;;;2.53;;
21733;SDS011;11029;47.820;10.534;2023-07-13T06:56:44;3.15;;;2.80;;
21733;SDS011;11029;47.820;10.534;2023-07-13T06:59:11;2.88;;;2.33;;
21733;SDS011;11029;47.820;10.534;2023-07-13T07:01:37;3.92;;;2.58;;
21733;SDS011;11029;47.820;10.534;2023-07-13T07:04:07;4.78;;;3.15;;
21733;SDS011;11029;47.820;10.534;2023-07-13T07:06:34;4.00;;;2.50;;
21733;SDS011;11029;47.820;10.534;2023-07-13T07:09:01;4.28;;;3.00;;
21733;SDS011;11029;47.820;10.534;2023-07-13T07:11:28;3.13;;;2.65;;
21733;SDS011;11029;47.820;10.534;2023-07-13T07:13:55;4.13;;;2.55;;
21733;SDS011;11029;47.820;10.534;2023-07-13T07:16:24;2.80;;;2.60;;
21733;SDS011;11029;47.820;10.534;2023-07-13T07:18:51;4.60;;;2.40;;
21733;SDS011;11029;47.820;10.534;2023-07-13T07:21:18;2.53;;;2.22;;
21733;SDS011;11029;47.820;10.534;2023-07-13T07:23:45;2.90;;;2.28;;
21733;SDS011;11029;47.820;10.534;2023-07-13T07:26:12;3.00;;;2.10;;
21733;SDS011;11029;47.820;10.534;2023-07-13T07:28:39;4.35;;;2.45;;
21733;SDS011;11029;47.820;10.534;2023-07-13T07:31:11;3.05;;;2.67;;
21733;SDS011;11029;47.820;10.534;2023-07-13T07:33:41;2.55;;;2.25;;
21733;SDS011;11029;47.820;10.534;2023-07-13T07:36:07;5.00;;;2.40;;
21733;SDS011;11029;47.820;10.534;2023-07-13T07:38:37;3.33;;;2.20;;
21733;SDS011;11029;47.820;10.534;2023-07-13T07:41:04;3.47;;;2.70;;
21733;SDS011;11029;47.820;10.534;2023-07-13T07:43:34;3.67;;;2.60;;
21733;SDS011;11029;47.820;10.534;2023-07-13T07:46:01;3.60;;;2.25;;
21733;SDS011;11029;47.820;10.534;2023-07-13T07:48:29;3.20;;;2.25;;
21733;SDS011;11029;47.820;10.534;2023-07-13T07:50:56;3.50;;;2.45;;
21733;SDS011;11029;47.820;10.534;2023-07-13T07:53:23;4.35;;;2.40;;
21733;SDS011;11029;47.820;10.534;2023-07-13T07:55:50;1.52;;;1.42;;
21733;SDS011;11029;47.820;10.534;2023-07-13T07:58:20;2.63;;;1.80;;
21733;SDS011;11029;47.820;10.534;2023-07-13T08:00:50;2.03;;;1.83;;
21733;SDS011;11029;47.820;10.534;2023-07-13T08:03:19;3.83;;;2.33;;
21733;SDS011;11029;47.820;10.534;2023-07-13T08:05:52;4.18;;;2.15;;
21733;SDS011;11029;47.820;10.534;2023-07-13T08:08:22;5.57;;;1.92;;
21733;SDS011;11029;47.820;10.534;2023-07-13T08:10:49;2.25;;;1.70;;
21733;SDS011;11029;47.820;10.534;2023-07-13T08:13:16;3.25;;;2.10;;
21733;SDS011;11029;47.820;10.534;2023-07-13T08:15:43;2.78;;;2.00;;
21733;SDS011;11029;47.820;10.534;2023-07-13T08:18:10;2.70;;;1.77;;
21733;SDS011;11029;47.820;10.534;2023-07-13T08:20:38;2.20;;;2.00;;
21733;SDS011;11029;47.820;10.534;2023-07-13T08:23:06;2.40;;;1.88;;
21733;SDS011;11029;47.820;10.534;2023-07-13T08:25:35;3.63;;;2.08;;
21733;SDS011;11029;47.820;10.534;2023-07-13T08:28:02;2.42;;;1.98;;
21733;SDS011;11029;47.820;10.534;2023-07-13T08:30:30;4.07;;;2.45;;
21733;SDS011;11029;47.820;10.534;2023-07-13T08:32:57;3.10;;;2.53;;
21733;SDS011;11029;47.820;10.534;2023-07-13T08:35:23;4.72;;;2.20;;
21733;SDS011;11029;47.820;10.534;2023-07-13T08:37:52;2.88;;;2.50;;
21733;SDS011;11029;47.820;10.534;2023-07-13T08:40:19;3.20;;;2.42;;
21733;SDS011;11029;47.820;10.534;2023-07-13T08:42:54;3.53;;;3.00;;
21733;SDS011;11029;47.820;10.534;2023-07-13T08:45:28;3.25;;;2.70;;
21733;SDS011;11029;47.820;10.534;2023-07-13T08:50:35;3.42;;;2.55;;
21733;SDS011;11029;47.820;10.534;2023-07-13T08:53:30;4.68;;;2.83;;
21733;SDS011;11029;47.820;10.534;2023-07-13T08:56:09;5.07;;;2.95;;
21733;SDS011;11029;47.820;10.534;2023-07-13T08:58:43;6.22;;;3.13;;
21733;SDS011;11029;47.820;10.534;2023-07-13T09:01:21;3.30;;;2.80;;
21733;SDS011;11029;47.820;10.534;2023-07-13T09:07:01;2.58;;;2.35;;
21733;SDS011;11029;47.820;10.534;2023-07-13T09:09:45;3.38;;;2.67;;
21733;SDS011;11029;47.820;10.534;2023-07-13T09:15:14;3.22;;;2.60;;
21733;SDS011;11029;47.820;10.534;2023-07-13T09:17:59;4.10;;;2.72;;
21733;SDS011;11029;47.820;10.534;2023-07-13T09:22:59;3.08;;;2.50;;
21733;SDS011;11029;47.820;10.534;2023-07-13T09:25:30;4.53;;;2.97;;
21733;SDS011;11029;47.820;10.534;2023-07-13T09:28:02;8.23;;;3.80;;
21733;SDS011;11029;47.820;10.534;2023-07-13T09:30:54;5.47;;;2.50;;
21733;SDS011;11029;47.820;10.534;2023-07-13T09:33:43;5.32;;;3.13;;
21733;SDS011;11029;47.820;10.534;2023-07-13T09:36:22;3.97;;;2.90;;
21733;SDS011;11029;47.820;10.534;2023-07-13T09:41:37;2.97;;;2.45;;
21733;SDS011;11029;47.820;10.534;2023-07-13T09:44:33;3.58;;;2.60;;
21733;SDS011;11029;47.820;10.534;2023-07-13T09:47:02;3.80;;;2.25;;
21733;SDS011;11029;47.820;10.534;2023-07-13T09:49:35;4.47;;;2.38;;
21733;SDS011;11029;47.820;10.534;2023-07-13T09:52:05;3.10;;;2.22;;
21733;SDS011;11029;47.820;10.534;2023-07-13T09:54:36;2.95;;;2.00;;
21733;SDS011;11029;47.820;10.534;2023-07-13T09:57:13;3.13;;;2.30;;
21733;SDS011;11029;47.820;10.534;2023-07-13T09:59:43;4.13;;;2.30;;
21733;SDS011;11029;47.820;10.534;2023-07-13T10:02:22;3.75;;;1.75;;
21733;SDS011;11029;47.820;10.534;2023-07-13T10:04:57;2.75;;;1.50;;
21733;SDS011;11029;47.820;10.534;2023-07-13T10:07:30;2.13;;;1.50;;
21733;SDS011;11029;47.820;10.534;2023-07-13T10:09:59;4.47;;;1.80;;
21733;SDS011;11029;47.820;10.534;2023-07-13T10:12:30;1.98;;;1.40;;
21733;SDS011;11029;47.820;10.534;2023-07-13T10:15:03;2.55;;;1.73;;
21733;SDS011;11029;47.820;10.534;2023-07-13T10:17:49;2.58;;;1.80;;
21733;SDS011;11029;47.820;10.534;2023-07-13T10:20:17;3.53;;;2.00;;
21733;SDS011;11029;47.820;10.534;2023-07-13T10:22:59;3.10;;;2.03;;
21733;SDS011;11029;47.820;10.534;2023-07-13T10:25:32;4.22;;;1.95;;
21733;SDS011;11029;47.820;10.534;2023-07-13T10:28:06;3.38;;;1.80;;
21733;SDS011;11029;47.820;10.534;2023-07-13T10:30:42;2.15;;;1.88;;
21733;SDS011;11029;47.820;10.534;2023-07-13T10:33:12;2.63;;;2.10;;
21733;SDS011;11029;47.820;10.534;2023-07-13T10:35:41;4.68;;;1.90;;
21733;SDS011;11029;47.820;10.534;2023-07-13T10:38:11;3.13;;;2.00;;
21733;SDS011;11029;47.820;10.534;2023-07-13T10:40:41;3.95;;;1.90;;
21733;SDS011;11029;47.820;10.534;2023-07-13T10:43:25;4.15;;;1.83;;
21733;SDS011;11029;47.820;10.534;2023-07-13T10:45:57;4.78;;;1.77;;
21733;SDS011;11029;47.820;10.534;2023-07-13T10:48:25;2.30;;;1.42;;
21733;SDS011;11029;47.820;10.534;2023-07-13T10:50:52;3.70;;;2.13;;
21733;SDS011;11029;47.820;10.534;2023-07-13T10:53:22;3.63;;;1.95;;
21733;SDS011;11029;47.820;10.534;2023-07-13T10:55:55;2.38;;;1.63;;
21733;SDS011;11029;47.820;10.534;2023-07-13T10:58:34;3.17;;;2.15;;
21733;SDS011;11029;47.820;10.534;2023-07-13T11:06:06;3.55;;;1.70;;
21733;SDS011;11029;47.820;10.534;2023-07-13T11:08:38;3.53;;;1.80;;
21733;SDS011;11029;47.820;10.534;2023-07-13T11:19:51;3.05;;;1.85;;
21733;SDS011;11029;47.820;10.534;2023-07-13T11:22:42;1.75;;;1.10;;
21733;SDS011;11029;47.820;10.534;2023-07-13T11:25:30;8.50;;;1.63;;
21733;SDS011;11029;47.820;10.534;2023-07-13T11:31:41;2.70;;;1.50;;
21733;SDS011;11029;47.820;10.534;2023-07-13T11:34:12;2.03;;;1.80;;
21733;SDS011;11029;47.820;10.534;2023-07-13T11:36:42;3.75;;;1.92;;
21733;SDS011;11029;47.820;10.534;2023-07-13T11:39:13;2.25;;;1.60;;
21733;SDS011;11029;47.820;10.534;2023-07-13T11:41:43;2.45;;;1.52;;
21733;SDS011;11029;47.820;10.534;2023-07-13T11:44:57;3.00;;;1.80;;
21733;SDS011;11029;47.820;10.534;2023-07-13T11:47:54;3.42;;;2.20;;
21733;SDS011;11029;47.820;10.534;2023-07-13T11:50:26;2.88;;;1.30;;
21733;SDS011;11029;47.820;10.534;2023-07-13T11:52:57;2.80;;;1.42;;
21733;SDS011;11029;47.820;10.534;2023-07-13T11:55:32;2.85;;;1.50;;
21733;SDS011;11029;47.820;10.534;2023-07-13T11:58:09;3.00;;;2.05;;
21733;SDS011;11029;47.820;10.534;2023-07-13T12:00:37;3.03;;;1.58;;
21733;SDS011;11029;47.820;10.534;2023-07-13T12:03:23;1.40;;;1.30;;
21733;SDS011;11029;47.820;10.534;2023-07-13T12:06:15;3.40;;;1.80;;
21733;SDS011;11029;47.820;10.534;2023-07-13T12:10:28;2.65;;;1.92;;
21733;SDS011;11029;47.820;10.534;2023-07-13T12:25:31;1.83;;;1.50;;
21733;SDS011;11029;47.820;10.534;2023-07-13T12:32:58;2.72;;;1.40;;
21733;SDS011;11029;47.820;10.534;2023-07-13T12:35:28;1.70;;;1.60;;
21733;SDS011;11029;47.820;10.534;2023-07-13T12:37:57;3.38;;;1.40;;
21733;SDS011;11029;47.820;10.534;2023-07-13T12:40:32;2.50;;;1.33;;
21733;SDS011;11029;47.820;10.534;2023-07-13T12:43:03;4.18;;;1.60;;
21733;SDS011;11029;47.820;10.534;2023-07-13T12:45:30;3.53;;;1.88;;
21733;SDS011;11029;47.820;10.534;2023-07-13T12:47:59;3.35;;;1.92;;
21733;SDS011;11029;47.820;10.534;2023-07-13T12:50:39;2.17;;;1.70;;
21733;SDS011;11029;47.820;10.534;2023-07-13T12:53:21;4.45;;;1.80;;
21733;SDS011;11029;47.820;10.534;2023-07-13T12:55:53;2.30;;;1.77;;
21733;SDS011;11029;47.820;10.534;2023-07-13T12:58:32;2.40;;;1.58;;
21733;SDS011;11029;47.820;10.534;2023-07-13T13:01:04;3.72;;;1.90;;
21733;SDS011;11029;47.820;10.534;2023-07-13T13:03:35;3.70;;;1.75;;
21733;SDS011;11029;47.820;10.534;2023-07-13T13:06:06;4.65;;;1.70;;
21733;SDS011;11029;47.820;10.534;2023-07-13T13:08:53;2.22;;;1.73;;
21733;SDS011;11029;47.820;10.534;2023-07-13T13:11:22;3.90;;;1.77;;
21733;SDS011;11029;47.820;10.534;2023-07-13T13:13:52;2.55;;;1.52;;
21733;SDS011;11029;47.820;10.534;2023-07-13T13:16:28;2.58;;;1.80;;
21733;SDS011;11029;47.820;10.534;2023-07-13T13:19:14;4.05;;;2.63;;
21733;SDS011;11029;47.820;10.534;2023-07-13T13:21:48;3.55;;;1.75;;
21733;SDS011;11029;47.820;10.534;2023-07-13T13:24:20;3.08;;;1.80;;
21733;SDS011;11029;47.820;10.534;2023-07-13T13:26:50;2.83;;;1.92;;
21733;SDS011;11029;47.820;10.534;2023-07-13T13:29:19;3.80;;;1.80;;
21733;SDS011;11029;47.820;10.534;2023-07-13T13:31:51;2.30;;;1.60;;
21733;SDS011;11029;47.820;10.534;2023-07-13T13:34:21;3.50;;;1.90;;
21733;SDS011;11029;47.820;10.534;2023-07-13T13:36:53;3.08;;;1.70;;
21733;SDS011;11029;47.820;10.534;2023-07-13T13:42:00;4.90;;;1.90;;
21733;SDS011;11029;47.820;10.534;2023-07-13T13:44:27;5.90;;;1.95;;
21733;SDS011;11029;47.820;10.534;2023-07-13T13:46:55;2.45;;;1.80;;
21733;SDS011;11029;47.820;10.534;2023-07-13T13:49:23;3.53;;;1.52;;
21733;SDS011;11029;47.820;10.534;2023-07-13T13:51:52;2.60;;;1.50;;
21733;SDS011;11029;47.820;10.534;2023-07-13T13:54:20;6.50;;;1.90;;
21733;SDS011;11029;47.820;10.534;2023-07-13T13:56:49;4.13;;;2.22;;
21733;SDS011;11029;47.820;10.534;2023-07-13T13:59:17;3.35;;;2.40;;
21733;SDS011;11029;47.820;10.534;2023-07-13T14:01:46;3.65;;;2.22;;
21733;SDS011;11029;47.820;10.534;2023-07-13T14:04:19;2.67;;;1.60;;
21733;SDS011;11029;47.820;10.534;2023-07-13T14:06:48;3.28;;;2.20;;
21733;SDS011;11029;47.820;10.534;2023-07-13T14:09:17;2.70;;;2.00;;
21733;SDS011;11029;47.820;10.534;2023-07-13T14:11:46;4.35;;;1.63;;
21733;SDS011;11029;47.820;10.534;2023-07-13T14:14:23;4.28;;;2.17;;
21733;SDS011;11029;47.820;10.534;2023-07-13T14:16:54;5.05;;;2.40;;
21733;SDS011;11029;47.820;10.534;2023-07-13T14:19:23;3.08;;;2.10;;
21733;SDS011;11029;47.820;10.534;2023-07-13T14:21:53;2.67;;;2.00;;
21733;SDS011;11029;47.820;10.534;2023-07-13T14:24:21;4.47;;;2.17;;
21733;SDS011;11029;47.820;10.534;2023-07-13T14:26:49;2.97;;;1.95;;
21733;SDS011;11029;47.820;10.534;2023-07-13T14:29:17;4.38;;;2.38;;
21733;SDS011;11029;47.820;10.534;2023-07-13T14:31:50;4.03;;;1.90;;
21733;SDS011;11029;47.820;10.534;2023-07-13T14:34:19;2.22;;;1.85;;
21733;SDS011;11029;47.820;10.534;2023-07-13T14:36:47;2.92;;;2.10;;
21733;SDS011;11029;47.820;10.534;2023-07-13T14:41:45;1.67;;;1.58;;
21733;SDS011;11029;47.820;10.534;2023-07-13T14:44:16;2.35;;;1.65;;
21733;SDS011;11029;47.820;10.534;2023-07-13T14:46:47;1.70;;;1.60;;
21733;SDS011;11029;47.820;10.534;2023-07-13T14:51:51;2.17;;;1.70;;
21733;SDS011;11029;47.820;10.534;2023-07-13T14:54:18;2.88;;;1.75;;
21733;SDS011;11029;47.820;10.534;2023-07-13T14:56:45;1.95;;;1.58;;
21733;SDS011;11029;47.820;10.534;2023-07-13T14:59:13;1.70;;;1.60;;
21733;SDS011;11029;47.820;10.534;2023-07-13T15:01:40;1.55;;;1.40;;
21733;SDS011;11029;47.820;10.534;2023-07-13T15:04:08;3.58;;;1.80;;
21733;SDS011;11029;47.820;10.534;2023-07-13T15:06:52;3.72;;;1.85;;
21733;SDS011;11029;47.820;10.534;2023-07-13T15:09:28;4.55;;;1.45;;
21733;SDS011;11029;47.820;10.534;2023-07-13T15:11:58;3.78;;;1.48;;
21733;SDS011;11029;47.820;10.534;2023-07-13T15:14:25;1.90;;;1.40;;
21733;SDS011;11029;47.820;10.534;2023-07-13T15:16:55;6.13;;;1.50;;
21733;SDS011;11029;47.820;10.534;2023-07-13T15:19:23;1.98;;;1.63;;
21733;SDS011;11029;47.820;10.534;2023-07-13T15:21:57;1.85;;;1.75;;
21733;SDS011;11029;47.820;10.534;2023-07-13T15:24:24;4.25;;;1.80;;
21733;SDS011;11029;47.820;10.534;2023-07-13T15:26:51;2.55;;;1.73;;
21733;SDS011;11029;47.820;10.534;2023-07-13T15:29:18;2.53;;;1.75;;
21733;SDS011;11029;47.820;10.534;2023-07-13T15:31:45;4.00;;;1.63;;
21733;SDS011;11029;47.820;10.534;2023-07-13T15:34:14;1.60;;;1.48;;
21733;SDS011;11029;47.820;10.534;2023-07-13T15:39:15;1.83;;;1.60;;
21733;SDS011;11029;47.820;10.534;2023-07-13T15:41:43;2.53;;;1.58;;
21733;SDS011;11029;47.820;10.534;2023-07-13T15:46:49;2.63;;;1.60;;
21733;SDS011;11029;47.820;10.534;2023-07-13T15:49:16;1.52;;;1.38;;
21733;SDS011;11029;47.820;10.534;2023-07-13T15:51:43;2.38;;;1.60;;
21733;SDS011;11029;47.820;10.534;2023-07-13T15:54:12;2.38;;;1.88;;